createdAt,value
2023-02-02T00:02:01.328Z,100411.97
2023-02-02T00:04:31.474Z,100427.34
2023-02-02T00:06:59.708Z,100430.22
2023-02-02T00:09:29.091Z,100431.78
2023-02-02T00:11:57.573Z,100422.00
2023-02-02T00:14:25.266Z,100423.03
2023-02-02T00:16:55.161Z,100420.41
2023-02-02T00:19:26.275Z,100426.78
2023-02-02T00:21:54.624Z,100424.75
2023-02-02T00:24:23.055Z,100429.06
2023-02-02T00:26:52.733Z,100429.31
2023-02-02T00:29:24.007Z,100429.84
2023-02-02T00:31:52.411Z,100433.16
2023-02-02T00:34:22.732Z,100432.84
2023-02-02T00:36:51.243Z,100433.28
2023-02-02T00:39:21.258Z,100431.47
2023-02-02T00:41:50.078Z,100433.03
2023-02-02T00:44:35.763Z,100431.34
2023-02-02T00:47:03.694Z,100429.88
2023-02-02T00:49:32.858Z,100434.66
2023-02-02T00:52:00.911Z,100408.91
2023-02-02T00:54:28.589Z,100431.72
2023-02-02T00:56:56.278Z,100430.56
2023-02-02T00:59:23.941Z,100433.28
2023-02-02T01:01:51.600Z,100427.47
2023-02-02T01:04:19.268Z,100429.06
2023-02-02T01:06:48.838Z,100433.97
2023-02-02T01:09:16.514Z,100415.97
2023-02-02T01:11:44.188Z,100429.63
2023-02-02T01:14:12.093Z,100429.16
2023-02-02T01:16:40.043Z,100434.09
2023-02-02T01:19:07.980Z,100438.75
2023-02-02T01:21:35.786Z,100431.13
2023-02-02T01:24:04.986Z,100425.19
2023-02-02T01:26:32.651Z,100435.97
2023-02-02T01:29:00.276Z,100436.09
2023-02-02T01:31:27.938Z,100434.13
2023-02-02T01:33:56.231Z,100445.41
2023-02-02T01:36:25.486Z,100437.44
2023-02-02T01:38:53.158Z,100426.59
2023-02-02T01:41:23.828Z,100427.72
2023-02-02T01:43:55.228Z,100390.78
2023-02-02T01:46:25.312Z,100423.13
2023-02-02T01:49:00.598Z,100428.03
2023-02-02T01:51:36.084Z,100426.56
2023-02-02T01:54:07.027Z,100428.97
2023-02-02T01:56:40.642Z,100437.41
2023-02-02T01:59:09.240Z,100436.69
2023-02-02T02:01:37.003Z,100436.69
2023-02-02T02:04:04.927Z,100426.78
2023-02-02T02:06:32.897Z,100430.00
2023-02-02T02:09:04.727Z,100428.19
2023-02-02T02:11:33.725Z,100425.25
2023-02-02T02:14:24.204Z,100425.22
2023-02-02T02:17:02.063Z,100425.78
2023-02-02T02:20:25.325Z,100417.25
2023-02-02T02:23:30.924Z,100431.59
2023-02-02T02:26:37.667Z,100435.06
2023-02-02T02:29:22.810Z,100438.03
2023-02-02T02:32:19.478Z,100429.94
2023-02-02T02:34:56.131Z,100434.94
2023-02-02T02:37:32.573Z,100428.44
2023-02-02T02:40:06.750Z,100434.94
2023-02-02T02:42:38.495Z,100441.19
2023-02-02T02:45:08.711Z,100435.19
2023-02-02T02:47:38.917Z,100432.69
2023-02-02T02:50:07.251Z,100437.25
2023-02-02T02:52:37.307Z,100433.81
2023-02-02T02:55:07.814Z,100448.41
2023-02-02T02:57:45.191Z,100445.56
2023-02-02T03:00:26.808Z,100441.69
2023-02-02T03:03:01.230Z,100432.16
2023-02-02T03:05:35.052Z,100437.34
2023-02-02T03:08:10.931Z,100445.88
2023-02-02T03:10:41.293Z,100442.91
2023-02-02T03:13:11.330Z,100439.66
2023-02-02T03:15:44.707Z,100439.66
2023-02-02T03:18:16.380Z,100439.66
2023-02-02T03:20:46.105Z,100438.19
2023-02-02T03:23:14.072Z,100437.63
2023-02-02T03:25:42.300Z,100440.16
2023-02-02T03:28:10.154Z,100446.97
2023-02-02T03:30:39.307Z,100438.44
2023-02-02T03:33:07.664Z,100443.81
2023-02-02T03:35:36.743Z,100440.97
2023-02-02T03:38:04.733Z,100445.63
2023-02-02T03:40:32.359Z,100446.97
2023-02-02T03:43:00.056Z,100435.34
2023-02-02T03:45:28.576Z,100444.94
2023-02-02T03:47:56.212Z,100444.84
2023-02-02T03:50:25.142Z,100443.69
2023-02-02T03:52:55.069Z,100459.41
2023-02-02T03:55:23.003Z,100451.88
2023-02-02T03:57:50.821Z,100464.28
2023-02-02T04:00:19.120Z,100463.16
2023-02-02T04:02:46.944Z,100466.00
2023-02-02T04:05:14.869Z,100451.09
2023-02-02T04:07:42.564Z,100450.38
2023-02-02T04:10:12.535Z,100447.41
2023-02-02T04:12:40.277Z,100452.16
2023-02-02T04:15:09.288Z,100455.25
2023-02-02T04:17:37.128Z,100458.56
2023-02-02T04:20:06.323Z,100458.03
2023-02-02T04:22:34.143Z,100459.16
2023-02-02T04:25:01.735Z,100466.47
2023-02-02T04:27:32.557Z,100469.16
2023-02-02T04:30:00.269Z,100464.94
2023-02-02T04:32:27.926Z,100463.97
2023-02-02T04:34:55.532Z,100461.94
2023-02-02T04:37:23.194Z,100467.72
2023-02-02T04:39:50.885Z,100464.72
2023-02-02T04:42:18.529Z,100473.19
2023-02-02T04:44:47.588Z,100474.81
2023-02-02T04:47:15.256Z,100477.63
2023-02-02T04:49:42.910Z,100482.31
2023-02-02T04:52:12.068Z,100477.44
2023-02-02T04:54:39.753Z,100473.78
2023-02-02T04:57:07.405Z,100477.44
2023-02-02T04:59:35.070Z,100484.03
2023-02-02T05:02:04.776Z,100485.66
2023-02-02T05:04:32.622Z,100488.84
2023-02-02T05:07:00.270Z,100498.06
2023-02-02T05:09:28.114Z,100495.22
2023-02-02T05:11:55.817Z,100491.25
2023-02-02T05:14:23.664Z,100500.59
2023-02-02T05:16:51.356Z,100499.53
2023-02-02T05:19:20.422Z,100497.53
2023-02-02T05:21:51.150Z,100509.81
2023-02-02T05:24:18.885Z,100509.94
2023-02-02T05:26:47.001Z,100508.00
2023-02-02T05:29:14.627Z,100515.75
2023-02-02T05:31:42.401Z,100508.94
2023-02-02T05:34:11.409Z,100513.25
2023-02-02T05:36:40.456Z,100516.69
2023-02-02T05:39:08.106Z,100501.75
2023-02-02T05:41:35.777Z,100515.53
2023-02-02T05:44:04.006Z,100519.41
2023-02-02T05:46:31.970Z,100525.81
2023-02-02T05:48:59.647Z,100516.69
2023-02-02T05:51:30.568Z,100525.69
2023-02-02T05:54:01.027Z,100526.53
2023-02-02T05:56:28.969Z,100525.94
2023-02-02T05:58:56.603Z,100540.41
2023-02-02T06:01:24.375Z,100534.69
2023-02-02T06:03:52.214Z,100528.91
2023-02-02T06:06:19.925Z,100531.97
2023-02-02T06:08:47.593Z,100526.97
2023-02-02T06:11:18.378Z,100521.38
2023-02-02T06:13:46.553Z,100524.91
2023-02-02T06:16:14.594Z,100524.91
2023-02-02T06:18:42.496Z,100535.19
2023-02-02T06:21:11.046Z,100507.09
2023-02-02T06:23:43.397Z,100544.28
2023-02-02T06:26:11.002Z,100545.09
2023-02-02T06:28:39.979Z,100547.25
2023-02-02T06:31:08.974Z,100546.56
2023-02-02T06:33:36.917Z,100545.78
2023-02-02T06:36:07.310Z,100553.41
2023-02-02T06:38:35.311Z,100561.94
2023-02-02T06:41:03.745Z,100550.78
2023-02-02T06:43:31.475Z,100562.88
2023-02-02T06:46:00.598Z,100555.34
2023-02-02T06:48:28.586Z,100558.00
2023-02-02T06:50:59.242Z,100559.91
2023-02-02T06:53:27.120Z,100564.16
2023-02-02T06:55:55.503Z,100568.38
2023-02-02T06:58:23.748Z,100559.13
2023-02-02T07:00:51.678Z,100569.84
2023-02-02T07:03:21.983Z,100557.06
2023-02-02T07:05:50.158Z,100560.84
2023-02-02T07:08:18.134Z,100560.50
2023-02-02T07:11:12.943Z,100558.91
2023-02-02T07:13:33.568Z,100554.09
2023-02-02T07:16:01.291Z,100564.72
2023-02-02T07:18:30.443Z,100559.59
2023-02-02T07:21:00.106Z,100564.03
2023-02-02T07:23:27.802Z,100576.59
2023-02-02T07:26:02.874Z,100574.06
2023-02-02T07:28:30.866Z,100579.41
2023-02-02T07:30:58.703Z,100582.75
2023-02-02T07:33:26.377Z,100585.47
2023-02-02T07:35:55.410Z,100574.41
2023-02-02T07:38:23.029Z,100582.09
2023-02-02T07:40:50.693Z,100596.88
2023-02-02T07:43:19.302Z,100591.09
2023-02-02T07:45:46.895Z,100598.97
2023-02-02T07:48:14.573Z,100597.00
2023-02-02T07:50:42.217Z,100600.41
2023-02-02T07:53:11.253Z,100595.50
2023-02-02T07:55:38.910Z,100599.75
2023-02-02T07:58:07.778Z,100596.19
2023-02-02T08:00:35.485Z,100602.94
2023-02-02T08:03:03.283Z,100610.38
2023-02-02T08:05:32.010Z,100606.81
2023-02-02T08:07:59.636Z,100612.19
2023-02-02T08:10:28.648Z,100618.91
2023-02-02T08:12:56.354Z,100613.47
2023-02-02T08:15:24.135Z,100621.66
2023-02-02T08:17:52.074Z,100624.16
2023-02-02T08:20:20.546Z,100629.78
2023-02-02T08:22:48.192Z,100623.59
2023-02-02T08:25:15.892Z,100628.97
2023-02-02T08:27:44.920Z,100625.31
2023-02-02T08:30:13.644Z,100630.47
2023-02-02T08:32:41.354Z,100624.88
2023-02-02T08:35:09.403Z,100633.19
2023-02-02T08:37:36.979Z,100638.56
2023-02-02T08:40:05.266Z,100645.19
2023-02-02T08:42:32.909Z,100646.44
2023-02-02T08:46:07.791Z,100633.22
2023-02-02T08:47:56.081Z,100639.72
2023-02-02T08:50:33.640Z,100647.59
2023-02-02T08:53:01.261Z,100647.50
2023-02-02T08:55:28.967Z,100644.75
2023-02-02T08:57:57.160Z,100643.38
2023-02-02T09:00:26.500Z,100646.22
2023-02-02T09:02:54.138Z,100653.63
2023-02-02T09:05:21.865Z,100650.00
2023-02-02T09:07:49.485Z,100655.00
2023-02-02T09:10:17.750Z,100643.25
2023-02-02T09:12:45.435Z,100655.81
2023-02-02T09:15:13.546Z,100652.50
2023-02-02T09:17:42.530Z,100661.16
2023-02-02T09:20:11.290Z,100655.78
2023-02-02T09:22:38.954Z,100666.22
2023-02-02T09:25:07.289Z,100659.78
2023-02-02T09:27:38.401Z,100647.84
2023-02-02T09:30:06.715Z,100651.34
2023-02-02T09:32:34.392Z,100643.03
2023-02-02T09:35:03.526Z,100663.13
2023-02-02T09:37:31.397Z,100660.13
2023-02-02T09:39:59.075Z,100656.94
2023-02-02T09:42:56.302Z,100662.19
2023-02-02T09:45:29.247Z,100658.41
2023-02-02T09:48:05.213Z,100662.78
2023-02-02T09:50:44.476Z,100663.81
2023-02-02T09:53:19.230Z,100676.69
2023-02-02T09:55:49.557Z,100673.38
2023-02-02T09:58:21.416Z,100673.75
2023-02-02T10:00:56.221Z,100677.16
2023-02-02T10:03:30.075Z,100681.25
2023-02-02T10:06:08.677Z,100676.56
2023-02-02T10:08:42.351Z,100680.59
2023-02-02T10:11:30.640Z,100689.47
2023-02-02T10:14:03.678Z,100685.63
2023-02-02T10:16:34.415Z,100704.09
2023-02-02T10:19:05.371Z,100709.13
2023-02-02T10:21:40.853Z,100705.81
2023-02-02T10:24:18.699Z,100712.09
2023-02-02T10:26:49.138Z,100707.88
2023-02-02T10:29:19.452Z,100699.78
2023-02-02T10:32:02.798Z,100705.72
2023-02-02T10:34:38.458Z,100697.69
2023-02-02T10:37:20.750Z,100702.50
2023-02-02T10:40:03.563Z,100706.38
2023-02-02T10:42:42.649Z,100708.44
2023-02-02T10:45:15.603Z,100710.59
2023-02-02T10:47:43.548Z,100706.38
2023-02-02T10:50:19.049Z,100688.81
2023-02-02T10:52:51.179Z,100711.19
2023-02-02T10:55:27.229Z,100715.50
2023-02-02T10:58:05.769Z,100715.97
2023-02-02T11:00:39.072Z,100708.41
2023-02-02T11:03:09.571Z,100707.88
2023-02-02T11:05:55.057Z,100719.16
2023-02-02T11:08:33.304Z,100720.41
2023-02-02T11:11:12.140Z,100711.16
2023-02-02T11:13:43.753Z,100715.72
2023-02-02T11:16:21.186Z,100716.88
2023-02-02T11:18:49.613Z,100705.00
2023-02-02T11:21:20.834Z,100711.63
2023-02-02T11:23:55.714Z,100712.44
2023-02-02T11:26:24.520Z,100703.66
2023-02-02T11:28:55.253Z,100693.13
2023-02-02T11:31:33.736Z,100696.44
2023-02-02T11:34:20.468Z,100707.06
2023-02-02T11:37:12.604Z,100708.84
2023-02-02T11:39:42.408Z,100702.63
2023-02-02T11:42:16.073Z,100708.19
2023-02-02T11:44:47.578Z,100699.69
2023-02-02T11:47:22.216Z,100695.91
2023-02-02T11:49:51.607Z,100691.19
2023-02-02T11:52:23.123Z,100698.75
2023-02-02T11:54:53.940Z,100700.63
2023-02-02T11:57:23.565Z,100690.78
2023-02-02T11:59:53.858Z,100648.53
2023-02-02T12:02:31.001Z,100675.53
2023-02-02T12:05:29.673Z,100678.59
2023-02-02T12:07:57.330Z,100685.88
2023-02-02T12:10:32.456Z,100680.28
2023-02-02T12:13:08.218Z,100683.00
2023-02-02T12:15:46.366Z,100676.66
2023-02-02T12:18:32.593Z,100683.84
2023-02-02T12:21:05.519Z,100683.88
2023-02-02T12:23:52.309Z,100684.66
2023-02-02T12:26:24.974Z,100685.34
2023-02-02T12:29:25.804Z,100677.25
2023-02-02T12:32:14.919Z,100682.75
2023-02-02T12:34:54.376Z,100676.06
2023-02-02T12:37:35.568Z,100683.19
2023-02-02T12:40:15.527Z,100673.34
2023-02-02T12:42:56.869Z,100681.34
2023-02-02T12:45:43.951Z,100683.28
2023-02-02T12:48:25.795Z,100680.50
2023-02-02T12:51:07.139Z,100671.06
2023-02-02T12:54:33.484Z,100670.91
2023-02-02T12:56:46.075Z,100637.56
2023-02-02T12:59:24.015Z,100673.69
2023-02-02T13:02:04.471Z,100671.16
2023-02-02T13:04:54.534Z,100676.22
2023-02-02T13:07:33.095Z,100679.75
2023-02-02T13:10:09.873Z,100683.28
2023-02-02T13:12:43.282Z,100678.84
2023-02-02T13:15:15.972Z,100684.81
2023-02-02T13:17:47.852Z,100683.56
2023-02-02T13:20:22.610Z,100677.88
2023-02-02T13:22:54.110Z,100669.75
2023-02-02T13:25:28.129Z,100678.72
2023-02-02T13:27:59.122Z,100678.94
2023-02-02T13:30:34.043Z,100678.28
2023-02-02T13:33:06.309Z,100677.34
2023-02-02T13:35:41.234Z,100678.38
2023-02-02T13:38:18.962Z,100679.75
2023-02-02T13:40:47.057Z,100685.13
2023-02-02T13:43:26.399Z,100688.69
2023-02-02T13:46:07.538Z,100678.16
2023-02-02T13:48:43.423Z,100700.50
2023-02-02T13:51:32.776Z,100695.16
2023-02-02T13:54:28.597Z,100694.69
2023-02-02T13:57:05.940Z,100698.75
2023-02-02T13:59:51.979Z,100707.38
2023-02-02T14:02:27.809Z,100705.28
2023-02-02T14:04:58.646Z,100708.97
2023-02-02T14:07:32.170Z,100708.50
2023-02-02T14:10:00.529Z,100717.06
2023-02-02T14:12:31.519Z,100709.22
2023-02-02T14:14:59.089Z,100715.31
2023-02-02T14:17:53.324Z,100702.28
2023-02-02T14:20:51.256Z,100714.44
2023-02-02T14:23:51.572Z,100718.88
2023-02-02T14:26:41.625Z,100724.84
2023-02-02T14:29:36.620Z,100725.28
2023-02-02T14:32:25.040Z,100733.41
2023-02-02T14:34:55.251Z,100731.38
2023-02-02T14:37:42.640Z,100727.94
2023-02-02T14:40:27.760Z,100731.56
2023-02-02T14:43:24.239Z,100746.22
2023-02-02T14:46:24.736Z,100749.56
2023-02-02T14:49:10.219Z,100751.50
2023-02-02T14:51:49.537Z,100757.00
2023-02-02T14:54:24.232Z,100767.25
2023-02-02T14:56:56.077Z,100760.31
2023-02-02T14:59:27.563Z,100774.66
2023-02-02T15:02:01.995Z,100764.88
2023-02-02T15:04:31.227Z,100777.56
2023-02-02T15:07:51.191Z,100780.44
2023-02-02T15:10:53.789Z,100777.13
2023-02-02T15:13:22.941Z,100783.09
2023-02-02T15:15:59.201Z,100785.34
2023-02-02T15:18:33.140Z,100791.34
2023-02-02T15:21:05.983Z,100800.66
2023-02-02T15:23:41.621Z,100809.72
2023-02-02T15:26:16.221Z,100801.38
2023-02-02T15:28:49.736Z,100800.47
2023-02-02T15:31:24.169Z,100798.91
2023-02-02T15:33:54.927Z,100812.16
2023-02-02T15:36:26.165Z,100803.47
2023-02-02T15:38:59.336Z,100814.44
2023-02-02T15:41:33.096Z,100814.34
2023-02-02T15:44:00.847Z,100805.06
2023-02-02T15:46:32.336Z,100825.16
2023-02-02T15:49:32.785Z,100827.81
2023-02-02T15:52:05.126Z,100835.94
2023-02-02T15:54:37.937Z,100843.34
2023-02-02T15:57:24.042Z,100821.31
2023-02-02T15:59:51.763Z,100852.03
2023-02-02T16:02:24.148Z,100859.13
2023-02-02T16:04:51.807Z,100870.78
2023-02-02T16:07:24.055Z,100884.63
2023-02-02T16:09:53.766Z,100884.03
2023-02-02T16:12:23.549Z,100881.75
2023-02-02T16:14:53.494Z,100888.06
2023-02-02T16:17:23.085Z,100887.38
2023-02-02T16:19:52.241Z,100875.72
2023-02-02T16:22:25.328Z,100896.44
2023-02-02T16:24:58.014Z,100900.88
2023-02-02T16:27:28.055Z,100901.91
2023-02-02T16:29:59.342Z,100914.78
2023-02-02T16:32:29.239Z,100902.81
2023-02-02T16:34:57.177Z,100918.44
2023-02-02T16:37:27.330Z,100915.34
2023-02-02T16:39:58.318Z,100916.66
2023-02-02T16:42:36.227Z,100919.97
2023-02-02T16:45:04.038Z,100926.88
2023-02-02T16:47:37.797Z,100918.97
2023-02-02T16:50:26.077Z,100912.38
2023-02-02T16:52:56.175Z,100923.66
2023-02-02T16:55:29.711Z,100925.13
2023-02-02T16:58:04.873Z,100930.41
2023-02-02T17:00:33.436Z,100940.03
2023-02-02T17:03:05.340Z,100942.91
2023-02-02T17:05:37.282Z,100935.94
2023-02-02T17:08:07.884Z,100917.50
2023-02-02T17:10:38.683Z,100944.31
2023-02-02T17:13:39.076Z,100945.78
2023-02-02T17:16:06.968Z,100944.78
2023-02-02T17:18:34.712Z,100952.41
2023-02-02T17:21:07.878Z,100957.41
2023-02-02T17:23:38.564Z,100961.22
2023-02-02T17:26:09.840Z,100964.44
2023-02-02T17:28:39.603Z,100943.69
2023-02-02T17:31:10.169Z,100968.19
2023-02-02T17:33:38.227Z,100975.47
2023-02-02T17:36:06.726Z,100983.00
2023-02-02T17:38:34.369Z,100973.13
2023-02-02T17:41:04.101Z,100973.34
2023-02-02T17:43:34.451Z,100980.63
2023-02-02T17:46:04.120Z,100980.38
2023-02-02T17:48:31.983Z,100988.97
2023-02-02T17:50:59.751Z,100985.97
2023-02-02T17:53:32.103Z,100995.69
2023-02-02T17:56:01.018Z,100984.44
2023-02-02T17:58:28.688Z,100971.22
2023-02-02T18:00:58.971Z,100982.06
2023-02-02T18:03:30.879Z,100968.09
2023-02-02T18:06:01.476Z,100979.66
2023-02-02T18:08:29.823Z,100992.81
2023-02-02T18:10:57.752Z,100986.88
2023-02-02T18:13:25.451Z,100994.69
2023-02-02T18:15:54.998Z,100980.84
2023-02-02T18:18:24.376Z,100982.53
2023-02-02T18:20:52.360Z,100986.94
2023-02-02T18:23:20.475Z,100992.00
2023-02-02T18:25:48.308Z,100998.81
2023-02-02T18:28:18.015Z,101014.59
2023-02-02T18:30:46.460Z,101002.59
2023-02-02T18:33:17.242Z,101015.06
2023-02-02T18:35:47.952Z,101008.47
2023-02-02T18:38:15.916Z,101004.47
2023-02-02T18:40:43.665Z,101005.81
2023-02-02T18:43:11.388Z,101002.44
2023-02-02T18:45:39.042Z,101009.25
2023-02-02T18:48:06.899Z,101011.38
2023-02-02T18:50:34.614Z,101012.69
2023-02-02T18:53:03.659Z,101006.72
2023-02-02T18:55:32.317Z,101014.75
2023-02-02T18:57:59.931Z,100999.44
2023-02-02T19:00:27.651Z,101005.25
2023-02-02T19:02:55.381Z,101015.06
2023-02-02T19:05:40.580Z,101012.00
2023-02-02T19:08:09.607Z,101020.16
2023-02-02T19:10:37.361Z,101010.34
2023-02-02T19:13:19.161Z,101025.63
2023-02-02T19:15:48.357Z,101022.03
2023-02-02T19:18:18.467Z,101028.91
2023-02-02T19:20:47.346Z,101029.94
2023-02-02T19:23:18.742Z,100990.78
2023-02-02T19:25:51.266Z,101028.44
2023-02-02T19:28:22.935Z,101025.53
2023-02-02T19:30:52.237Z,101028.06
2023-02-02T19:33:20.413Z,101035.59
2023-02-02T19:35:52.956Z,101034.31
2023-02-02T19:38:22.756Z,101027.31
2023-02-02T19:40:50.422Z,101032.25
2023-02-02T19:43:25.327Z,101020.63
2023-02-02T19:45:53.877Z,101028.19
2023-02-02T19:48:25.757Z,101031.84
2023-02-02T19:50:54.775Z,101036.72
2023-02-02T19:53:28.090Z,101031.09
2023-02-02T19:55:55.784Z,101024.97
2023-02-02T19:58:25.798Z,101028.66
2023-02-02T20:00:55.654Z,101033.97
2023-02-02T20:03:25.067Z,101021.47
2023-02-02T20:05:54.509Z,101028.41
2023-02-02T20:08:26.257Z,101033.47
2023-02-02T20:10:55.451Z,101033.16
2023-02-02T20:13:25.935Z,101032.19
2023-02-02T20:16:03.611Z,101035.22
2023-02-02T20:18:41.156Z,101028.41
2023-02-02T20:21:18.396Z,101038.91
2023-02-02T20:23:47.529Z,101034.50
2023-02-02T20:26:23.772Z,101033.84
2023-02-02T20:28:53.594Z,101036.84
2023-02-02T20:31:23.218Z,101031.78
2023-02-02T20:33:54.434Z,101048.25
2023-02-02T20:36:35.325Z,101049.63
2023-02-02T20:39:22.736Z,101043.56
2023-02-02T20:41:50.717Z,101049.84
2023-02-02T20:44:18.379Z,101045.03
2023-02-02T20:46:46.062Z,101049.47
2023-02-02T20:49:14.138Z,101055.09
2023-02-02T20:51:41.816Z,101055.31
2023-02-02T20:54:11.371Z,101053.78
2023-02-02T20:56:39.281Z,101058.47
2023-02-02T20:59:07.488Z,101055.91
2023-02-02T21:01:35.277Z,101062.53
2023-02-02T21:04:05.327Z,101054.03
2023-02-02T21:06:33.031Z,101060.47
2023-02-02T21:09:00.678Z,101055.31
2023-02-02T21:11:29.757Z,101057.72
2023-02-02T21:13:57.515Z,101069.16
2023-02-02T21:16:25.920Z,101075.56
2023-02-02T21:18:53.939Z,101061.56
2023-02-02T21:21:22.536Z,101054.06
2023-02-02T21:23:51.524Z,101070.50
2023-02-02T21:26:22.132Z,101076.44
2023-02-02T21:28:51.186Z,101070.97
2023-02-02T21:31:19.152Z,101068.41
2023-02-02T21:33:48.485Z,101064.19
2023-02-02T21:36:29.907Z,101014.25
2023-02-02T21:39:03.021Z,101073.72
2023-02-02T21:41:33.074Z,101057.13
2023-02-02T21:44:02.112Z,101068.81
2023-02-02T21:46:36.455Z,101067.31
2023-02-02T21:49:04.682Z,101057.53
2023-02-02T21:51:35.755Z,101064.47
2023-02-02T21:54:18.641Z,101072.41
2023-02-02T21:56:46.353Z,101067.28
2023-02-02T21:59:17.459Z,101056.94
2023-02-02T22:01:47.023Z,101058.19
2023-02-02T22:04:21.697Z,101060.41
2023-02-02T22:06:51.475Z,101061.44
2023-02-02T22:09:22.347Z,101037.47
2023-02-02T22:11:53.059Z,101058.94
2023-02-02T22:14:26.733Z,101055.91
2023-02-02T22:16:58.480Z,101048.91
2023-02-02T22:19:30.082Z,101053.09
2023-02-02T22:22:11.884Z,101044.91
2023-02-02T22:24:39.871Z,101038.63
2023-02-02T22:27:18.195Z,101036.88
2023-02-02T22:29:47.468Z,101033.09
2023-02-02T22:32:15.194Z,101033.84
2023-02-02T22:34:42.894Z,101033.97
2023-02-02T22:37:10.522Z,101032.88
2023-02-02T22:39:42.624Z,101031.03
2023-02-02T22:42:10.836Z,101025.81
2023-02-02T22:44:38.515Z,101027.88
2023-02-02T22:47:07.500Z,101033.16
2023-02-02T22:49:35.187Z,101031.94
2023-02-02T22:52:02.838Z,101033.03
2023-02-02T22:54:30.973Z,101044.63
2023-02-02T22:56:58.603Z,101048.84
2023-02-02T22:59:26.288Z,101060.47
2023-02-02T23:01:53.889Z,101062.47
2023-02-02T23:04:22.866Z,101055.16
2023-02-02T23:06:50.540Z,101061.44
2023-02-02T23:09:18.277Z,101069.31
2023-02-02T23:11:48.040Z,101073.50
2023-02-02T23:14:16.792Z,101066.94
2023-02-02T23:16:44.605Z,101076.44
2023-02-02T23:19:12.234Z,101070.28
2023-02-02T23:21:41.233Z,101072.31
2023-02-02T23:24:09.595Z,101062.75
2023-02-02T23:26:37.374Z,101072.38
2023-02-02T23:29:05.097Z,101073.19
2023-02-02T23:31:32.916Z,101079.16
2023-02-02T23:34:00.756Z,101080.13
2023-02-02T23:36:28.428Z,101089.34
2023-02-02T23:38:57.432Z,101086.41
2023-02-02T23:41:25.164Z,101083.47
2023-02-02T23:43:53.078Z,101082.38
2023-02-02T23:46:21.006Z,101074.66
2023-02-02T23:48:48.798Z,101066.22
2023-02-02T23:51:16.522Z,101067.84
2023-02-02T23:53:44.843Z,101075.22
2023-02-02T23:56:13.808Z,101072.19
2023-02-02T23:58:41.430Z,101081.22
